Lark Harbour, Canada
Current Conditions -  °F | °C
As of 4:17 PM on Friday 21 Nov 2014 (Local Time) from CYJT Reporting Station
Light Snow Light Snow  
Wind Chill: 17°   Ceiling: 1400
Heat Index: 28°   Visibility: 10mi
Dew Point: 27°   Wind: 14mph
Humidity: 93%   Direction: 280°W
Pressure: 29.45"   Gusts: 22mph
Location:  49.1°N, 58.37°W
Report Text: CYJT 211917Z 28012G19KT 10SM -SN FEW008 OVC014 M02/M03 A2945 RMK SF2SC6 SLP975
Loading
Personal Weather Stations






























Interactive Weather Map New forecast layout! Learn more

10-Day Weather Forecast

Advertisements
Track Severe Weather on mobile